This is the latest recevied weather packets stored in our database for station/object HP1MRA-15. If no packets are shown the sender has not sent any weather packets the latest 1 day(s).
| Time | Temp. | Humidity | Pressure | Rain* | Wind** | Luminosity | Snow |
|---|---|---|---|---|---|---|---|
| 1778101534 | 32.78° C | 74% | 1001 hPa | 0 mm | - | - | - |
| 1778100934 | 32.22° C | 75% | 1000.9 hPa | 0 mm | - | - | - |
| 1778100034 | 32.78° C | 69% | 1000.8 hPa | 0 mm | - | - | - |
| 1778098534 | - | - | 1000.8 hPa | 0 mm | - | - | - |
| 1778097933 | 32.22° C | 69% | 1000.7 hPa | 0 mm | - | - | - |
| 1778097333 | 32.22° C | 69% | 1001.1 hPa | 0 mm | - | - | - |
| 1778096433 | 32.78° C | 66% | 1001.1 hPa | 0 mm | - | - | - |
| 1778095533 | 36.67° C | 59% | 1001.1 hPa | 0 mm | - | - | - |
| 1778094633 | 35° C | 59% | 1001.3 hPa | 0 mm | - | - | - |
| 1778093733 | - | - | 1001.7 hPa | 0 mm | - | - | - |
| 1778092233 | 38.33° C | 50% | 1002.1 hPa | 0 mm | - | - | - |
| 1778091333 | 37.22° C | 53% | 1002.3 hPa | 0 mm | - | - | - |
| 1778090132 | 36.67° C | 55% | 1002.7 hPa | 0 mm | - | - | - |
| 1778089832 | 37.22° C | 53% | 1002.9 hPa | 0 mm | - | - | - |
| 1778089533 | 37.78° C | 54% | 1002.9 hPa | 0 mm | - | - | - |
| 1778089232 | 37.78° C | 55% | 1003 hPa | 0 mm | - | - | - |
| 1778087732 | 37.22° C | 59% | 1003.2 hPa | 0 mm | - | - | - |
| 1778086532 | 36.11° C | 60% | 1003.1 hPa | 0 mm | - | - | - |
| 1778085932 | 36.11° C | 58% | 1003.2 hPa | 0 mm | - | - | - |
| 1778085032 | 36.11° C | 60% | 1003.3 hPa | 0 mm | - | - | - |
| 1778084432 | 35.56° C | 61% | 1003.4 hPa | 0 mm | - | - | - |
| 1778083831 | 36.67° C | 62% | 1003.6 hPa | 0 mm | - | - | - |
| 1778080531 | 35.56° C | 68% | 1004 hPa | 0 mm | - | - | - |
| 1778079931 | 34.44° C | 70% | 1004 hPa | 0 mm | - | - | - |
| 1778079331 | 33.89° C | 69% | 1004.1 hPa | 0 mm | - | - | - |
* Rain latest hour (hover to see other rain measurements)
** Current wind speed in m/s (hover to see current wind gust speed)